createdAt,value
2023-01-27T00:00:28.442Z,19.55
2023-01-27T00:02:55.537Z,14.93
2023-01-27T00:05:22.772Z,16.80
2023-01-27T00:07:50.018Z,16.98
2023-01-27T00:10:21.130Z,17.95
2023-01-27T00:13:07.302Z,16.30
2023-01-27T00:15:34.937Z,17.40
2023-01-27T00:18:02.539Z,12.70
2023-01-27T00:20:48.204Z,16.52
2023-01-27T00:23:34.254Z,17.10
2023-01-27T00:26:06.486Z,18.52
2023-01-27T00:28:34.386Z,16.38
2023-01-27T00:31:01.708Z,17.55
2023-01-27T00:33:29.276Z,16.35
2023-01-27T00:36:02.543Z,14.93
2023-01-27T00:38:30.516Z,13.07
2023-01-27T00:41:19.480Z,14.68
2023-01-27T00:43:50.686Z,18.40
2023-01-27T00:46:18.600Z,20.43
2023-01-27T00:48:45.856Z,16.23
2023-01-27T00:51:13.771Z,16.88
2023-01-27T00:53:41.163Z,17.67
2023-01-27T00:56:09.038Z,13.95
2023-01-27T00:58:36.364Z,14.32
2023-01-27T01:01:05.140Z,17.17
2023-01-27T01:03:33.044Z,14.25
2023-01-27T01:06:01.022Z,14.63
2023-01-27T01:08:28.174Z,18.63
2023-01-27T01:10:55.325Z,13.80
2023-01-27T01:13:22.551Z,13.77
2023-01-27T01:15:49.774Z,11.25
2023-01-27T01:18:17.143Z,13.10
2023-01-27T01:20:45.112Z,15.65
2023-01-27T01:23:12.504Z,14.27
2023-01-27T01:25:39.615Z,14.20
2023-01-27T01:28:07.373Z,13.75
2023-01-27T01:30:35.135Z,12.90
2023-01-27T01:33:02.342Z,12.30
2023-01-27T01:35:29.511Z,10.55
2023-01-27T01:37:56.729Z,11.85
2023-01-27T01:40:25.846Z,13.27
2023-01-27T01:42:56.341Z,10.75
2023-01-27T01:45:41.450Z,10.70
2023-01-27T01:48:14.516Z,11.85
2023-01-27T01:50:43.358Z,11.80
2023-01-27T01:53:11.162Z,11.68
2023-01-27T01:55:39.403Z,8.30
2023-01-27T01:58:07.677Z,11.45
2023-01-27T02:00:35.241Z,10.63
2023-01-27T02:03:03.052Z,10.45
2023-01-27T02:05:42.820Z,9.45
2023-01-27T02:08:22.475Z,8.23
2023-01-27T02:10:49.674Z,7.47
2023-01-27T02:13:16.784Z,6.90
2023-01-27T02:15:43.936Z,9.00
2023-01-27T02:18:11.123Z,7.45
2023-01-27T02:20:42.012Z,9.73
2023-01-27T02:23:16.882Z,6.80
2023-01-27T02:25:46.801Z,6.30
2023-01-27T02:28:13.926Z,7.68
2023-01-27T02:30:41.320Z,7.47
2023-01-27T02:33:15.619Z,4.80
2023-01-27T02:35:42.791Z,5.68
2023-01-27T02:38:11.507Z,6.25
2023-01-27T02:40:38.722Z,7.07
2023-01-27T02:43:05.889Z,5.70
2023-01-27T02:45:33.081Z,6.35
2023-01-27T02:48:00.209Z,4.40
2023-01-27T02:50:27.389Z,7.15
2023-01-27T02:52:54.600Z,8.13
2023-01-27T02:55:21.876Z,4.82
2023-01-27T02:57:49.012Z,15.20
2023-01-27T03:00:16.202Z,7.35
2023-01-27T03:02:43.408Z,8.55
2023-01-27T03:05:10.575Z,6.43
2023-01-27T03:07:37.853Z,6.43
2023-01-27T03:10:05.325Z,7.13
2023-01-27T03:12:32.484Z,4.90
2023-01-27T03:15:18.254Z,5.45
2023-01-27T03:18:04.038Z,5.75
2023-01-27T03:20:31.435Z,5.50
2023-01-27T03:22:58.575Z,5.63
2023-01-27T03:25:25.823Z,5.10
2023-01-27T03:27:52.894Z,5.70
2023-01-27T03:30:20.126Z,6.40
2023-01-27T03:32:47.459Z,5.90
2023-01-27T03:35:15.569Z,8.57
2023-01-27T03:38:02.486Z,8.57
2023-01-27T03:40:48.330Z,7.20
2023-01-27T03:43:35.493Z,4.40
2023-01-27T03:46:19.014Z,4.45
2023-01-27T03:48:49.729Z,4.65
2023-01-27T03:51:17.002Z,4.65
2023-01-27T03:53:44.448Z,3.70
2023-01-27T03:56:12.599Z,4.25
2023-01-27T03:58:40.325Z,3.20
2023-01-27T04:01:18.975Z,2.80
2023-01-27T04:04:05.334Z,2.95
2023-01-27T04:06:52.176Z,3.60
2023-01-27T04:09:29.541Z,3.03
2023-01-27T04:12:00.547Z,2.92
2023-01-27T04:14:42.088Z,3.80
2023-01-27T04:17:17.108Z,3.50
2023-01-27T04:19:44.305Z,2.95
2023-01-27T04:22:12.420Z,3.22
2023-01-27T04:24:39.560Z,3.72
2023-01-27T04:27:07.878Z,2.50
2023-01-27T04:29:36.655Z,2.40
2023-01-27T04:32:07.416Z,3.17
2023-01-27T04:34:34.537Z,3.70
2023-01-27T04:37:03.424Z,4.95
2023-01-27T04:39:30.608Z,4.05
2023-01-27T04:41:58.126Z,2.50
2023-01-27T04:44:25.484Z,2.17
2023-01-27T04:46:54.236Z,3.38
2023-01-27T04:49:22.265Z,2.60
2023-01-27T04:51:49.418Z,3.25
2023-01-27T04:54:16.593Z,2.38
2023-01-27T04:56:56.609Z,3.33
2023-01-27T04:59:23.680Z,3.60
2023-01-27T05:01:52.096Z,3.28
2023-01-27T05:04:19.250Z,2.80
2023-01-27T05:06:46.358Z,3.35
2023-01-27T05:09:13.610Z,4.28
2023-01-27T05:11:40.723Z,2.45
2023-01-27T05:14:07.765Z,4.38
2023-01-27T05:16:34.936Z,3.17
2023-01-27T05:19:02.109Z,2.83
2023-01-27T05:21:30.911Z,2.83
2023-01-27T05:23:58.211Z,1.52
2023-01-27T05:26:26.401Z,2.00
2023-01-27T05:28:54.175Z,1.50
2023-01-27T05:31:23.039Z,2.92
2023-01-27T05:33:51.114Z,3.60
2023-01-27T05:36:19.094Z,1.90
2023-01-27T05:38:46.630Z,2.13
2023-01-27T05:41:14.429Z,2.58
2023-01-27T05:43:42.526Z,2.15
2023-01-27T05:46:11.105Z,3.10
2023-01-27T05:48:39.391Z,2.92
2023-01-27T05:51:06.993Z,1.73
2023-01-27T05:53:34.499Z,2.75
2023-01-27T05:56:01.891Z,2.10
2023-01-27T05:58:29.125Z,1.48
2023-01-27T06:00:56.410Z,1.73
2023-01-27T06:03:23.878Z,2.05
2023-01-27T06:05:55.297Z,4.45
2023-01-27T06:08:26.663Z,2.20
2023-01-27T06:10:54.407Z,2.95
2023-01-27T06:13:22.982Z,1.70
2023-01-27T06:15:50.475Z,2.45
2023-01-27T06:18:18.854Z,1.67
2023-01-27T06:20:46.287Z,1.88
2023-01-27T06:23:14.468Z,3.47
2023-01-27T06:25:43.612Z,2.67
2023-01-27T06:28:19.932Z,1.65
2023-01-27T06:30:54.455Z,3.05
2023-01-27T06:33:21.588Z,3.20
2023-01-27T06:35:48.721Z,3.17
2023-01-27T06:38:15.971Z,2.20
2023-01-27T06:40:44.136Z,2.10
2023-01-27T06:43:14.844Z,3.90
2023-01-27T06:45:42.138Z,4.05
2023-01-27T06:48:09.193Z,2.20
2023-01-27T06:50:36.822Z,2.80
2023-01-27T06:53:07.463Z,3.28
2023-01-27T06:55:35.527Z,4.20
2023-01-27T06:58:03.292Z,4.72
2023-01-27T07:00:30.612Z,3.30
2023-01-27T07:02:58.017Z,1.83
2023-01-27T07:05:25.433Z,3.88
2023-01-27T07:07:52.563Z,2.83
2023-01-27T07:10:20.251Z,2.78
2023-01-27T07:12:47.411Z,2.13
2023-01-27T07:15:14.762Z,3.83
2023-01-27T07:17:41.965Z,5.05
2023-01-27T07:20:10.096Z,4.28
2023-01-27T07:22:37.299Z,4.75
2023-01-27T07:25:05.164Z,3.35
2023-01-27T07:27:32.297Z,2.25
2023-01-27T07:29:59.533Z,3.03
2023-01-27T07:32:28.432Z,3.92
2023-01-27T07:34:55.714Z,3.50
2023-01-27T07:37:22.839Z,6.93
2023-01-27T07:39:50.106Z,2.35
2023-01-27T07:42:17.202Z,3.53
2023-01-27T07:44:44.308Z,2.90
2023-01-27T07:47:11.902Z,3.47
2023-01-27T07:49:38.997Z,5.75
2023-01-27T07:52:06.239Z,3.17
2023-01-27T07:54:33.347Z,3.42
2023-01-27T07:57:01.572Z,3.20
2023-01-27T07:59:28.741Z,6.40
2023-01-27T08:01:55.894Z,4.80
2023-01-27T08:04:23.018Z,4.00
2023-01-27T08:06:50.146Z,2.67
2023-01-27T08:09:17.259Z,5.30
2023-01-27T08:11:44.440Z,3.53
2023-01-27T08:14:11.615Z,5.55
2023-01-27T08:16:38.815Z,6.63
2023-01-27T08:19:05.966Z,3.45
2023-01-27T08:21:33.107Z,5.43
2023-01-27T08:24:02.320Z,3.45
2023-01-27T08:26:29.492Z,4.28
2023-01-27T08:28:56.611Z,3.83
2023-01-27T08:31:23.817Z,6.88
2023-01-27T08:33:52.600Z,4.57
2023-01-27T08:36:20.786Z,3.80
2023-01-27T08:38:49.489Z,3.95
2023-01-27T08:41:20.923Z,5.45
2023-01-27T08:43:48.167Z,4.32
2023-01-27T08:46:15.837Z,6.55
2023-01-27T08:48:43.210Z,4.38
2023-01-27T08:51:12.075Z,5.43
2023-01-27T08:53:39.334Z,4.90
2023-01-27T08:56:07.908Z,4.80
2023-01-27T08:58:35.620Z,3.80
2023-01-27T09:01:03.718Z,4.65
2023-01-27T09:03:31.313Z,8.30
2023-01-27T09:05:58.499Z,4.93
2023-01-27T09:08:26.080Z,5.10
2023-01-27T09:10:53.261Z,4.43
2023-01-27T09:13:22.273Z,4.18
2023-01-27T09:15:51.632Z,3.97
2023-01-27T09:18:19.102Z,5.93
2023-01-27T09:20:46.454Z,5.70
2023-01-27T09:23:13.656Z,5.00
2023-01-27T09:25:40.752Z,3.33
2023-01-27T09:28:16.733Z,7.15
2023-01-27T09:30:47.471Z,2.97
2023-01-27T09:33:15.448Z,3.47
2023-01-27T09:35:51.086Z,3.15
2023-01-27T09:38:21.414Z,4.78
2023-01-27T09:41:01.335Z,4.68
2023-01-27T09:43:34.599Z,3.47
2023-01-27T09:46:10.843Z,2.47
2023-01-27T09:48:41.554Z,7.40
2023-01-27T09:51:32.026Z,2.70
2023-01-27T09:53:59.169Z,4.68
2023-01-27T09:56:35.225Z,3.83
2023-01-27T09:59:21.159Z,5.53
2023-01-27T10:01:48.340Z,3.05
2023-01-27T10:04:27.820Z,3.33
2023-01-27T10:07:13.523Z,3.42
2023-01-27T10:09:57.735Z,3.60
2023-01-27T10:12:28.025Z,4.72
2023-01-27T10:15:04.140Z,3.42
2023-01-27T10:17:31.425Z,3.17
2023-01-27T10:20:18.797Z,4.30
2023-01-27T10:22:45.886Z,4.32
2023-01-27T10:25:31.058Z,6.22
2023-01-27T10:27:59.272Z,3.25
2023-01-27T10:30:36.537Z,3.17
2023-01-27T10:33:06.524Z,3.97
2023-01-27T10:35:37.970Z,3.95
2023-01-27T10:38:08.998Z,3.65
2023-01-27T10:40:42.006Z,4.95
2023-01-27T10:43:16.971Z,3.03
2023-01-27T10:45:56.423Z,3.28
2023-01-27T10:48:28.534Z,5.72
2023-01-27T10:53:41.063Z,4.60
2023-01-27T10:56:08.804Z,4.68
2023-01-27T10:58:48.087Z,3.80
2023-01-27T11:01:21.463Z,4.85
2023-01-27T11:03:52.256Z,3.28
2023-01-27T11:06:24.616Z,3.47
2023-01-27T11:08:54.036Z,4.78
2023-01-27T11:11:41.026Z,2.90
2023-01-27T11:14:27.825Z,3.50
2023-01-27T11:16:57.708Z,2.90
2023-01-27T11:19:32.141Z,3.22
2023-01-27T11:22:07.684Z,4.65
2023-01-27T11:24:42.484Z,3.72
2023-01-27T11:27:17.489Z,3.67
2023-01-27T11:29:53.889Z,2.95
2023-01-27T11:32:31.520Z,2.83
2023-01-27T11:34:58.678Z,2.92
2023-01-27T11:37:36.602Z,2.40
2023-01-27T11:40:04.072Z,3.90
2023-01-27T11:42:32.309Z,3.58
2023-01-27T11:45:00.008Z,2.55
2023-01-27T11:47:29.685Z,2.33
2023-01-27T11:49:57.667Z,3.15
2023-01-27T11:52:29.045Z,5.25
2023-01-27T11:55:17.053Z,3.17
2023-01-27T11:57:53.543Z,2.05
2023-01-27T12:00:26.994Z,2.45
2023-01-27T12:03:16.868Z,3.88
2023-01-27T12:05:46.923Z,2.92
2023-01-27T12:08:34.024Z,2.78
2023-01-27T12:11:17.347Z,2.65
2023-01-27T12:14:03.536Z,4.07
2023-01-27T12:16:44.943Z,2.58
2023-01-27T12:19:27.565Z,3.55
2023-01-27T12:21:59.371Z,2.95
2023-01-27T12:24:32.746Z,3.42
2023-01-27T12:27:00.520Z,3.85
2023-01-27T12:29:42.253Z,2.78
2023-01-27T12:32:18.237Z,6.28
2023-01-27T12:34:47.871Z,2.55
2023-01-27T12:37:32.819Z,2.97
2023-01-27T12:40:05.115Z,4.63
2023-01-27T12:42:37.578Z,2.47
2023-01-27T12:45:24.694Z,3.95
2023-01-27T12:48:10.554Z,4.63
2023-01-27T12:50:39.050Z,3.40
2023-01-27T12:53:09.248Z,1.52
2023-01-27T12:55:39.441Z,2.97
2023-01-27T12:58:06.701Z,2.03
2023-01-27T13:00:34.849Z,2.05
2023-01-27T13:03:05.898Z,2.97
2023-01-27T13:05:42.072Z,4.03
2023-01-27T13:08:14.382Z,2.30
2023-01-27T13:10:49.936Z,2.05
2023-01-27T13:13:23.954Z,1.73
2023-01-27T13:16:06.994Z,2.50
2023-01-27T13:18:35.851Z,2.38
2023-01-27T13:21:12.672Z,2.85
2023-01-27T13:23:41.536Z,2.65
2023-01-27T13:26:08.719Z,1.80
2023-01-27T13:28:52.709Z,2.03
2023-01-27T13:31:39.988Z,2.42
2023-01-27T13:34:14.573Z,2.45
2023-01-27T13:36:45.641Z,1.95
2023-01-27T13:39:12.961Z,2.83
2023-01-27T13:41:49.366Z,2.25
2023-01-27T13:44:25.748Z,1.85
2023-01-27T13:46:54.118Z,2.33
2023-01-27T13:49:47.457Z,2.67
2023-01-27T13:52:14.914Z,1.60
2023-01-27T13:54:42.293Z,1.98
2023-01-27T13:57:18.952Z,1.52
2023-01-27T14:00:15.814Z,0.90
2023-01-27T14:02:54.578Z,2.17
2023-01-27T14:05:24.914Z,1.05
2023-01-27T14:07:54.817Z,2.10
2023-01-27T14:10:29.056Z,4.20
2023-01-27T14:13:15.099Z,1.73
2023-01-27T14:15:52.138Z,1.65
2023-01-27T14:18:22.521Z,2.35
2023-01-27T14:21:05.586Z,0.93
2023-01-27T14:23:51.329Z,1.08
2023-01-27T14:26:22.167Z,1.65
2023-01-27T14:28:49.587Z,1.38
2023-01-27T14:31:19.966Z,1.38
2023-01-27T14:33:50.238Z,1.17
2023-01-27T14:36:18.041Z,2.30
2023-01-27T14:39:04.048Z,1.42
2023-01-27T14:41:31.186Z,2.50
2023-01-27T14:44:13.494Z,2.08
2023-01-27T14:46:50.148Z,1.42
2023-01-27T14:49:36.035Z,1.73
2023-01-27T14:52:03.183Z,1.08
2023-01-27T14:54:49.689Z,1.98
2023-01-27T14:57:16.883Z,2.22
2023-01-27T14:59:47.278Z,1.42
2023-01-27T15:02:23.486Z,1.70
2023-01-27T15:04:59.651Z,1.98
2023-01-27T15:07:47.333Z,1.38
2023-01-27T15:10:17.467Z,2.55
2023-01-27T15:13:03.222Z,3.13
2023-01-27T15:15:54.674Z,1.67
2023-01-27T15:18:40.669Z,1.23
2023-01-27T15:21:12.664Z,4.97
2023-01-27T15:23:49.145Z,4.88
2023-01-27T15:26:17.533Z,1.60
2023-01-27T15:28:44.728Z,1.50
2023-01-27T15:31:15.159Z,2.63
2023-01-27T15:33:54.506Z,1.13
2023-01-27T15:36:31.833Z,1.10
2023-01-27T15:39:11.036Z,0.80
2023-01-27T15:41:53.571Z,1.10
2023-01-27T15:44:20.683Z,1.17
2023-01-27T15:46:49.583Z,1.52
2023-01-27T15:49:20.448Z,1.77
2023-01-27T15:51:49.382Z,1.60
2023-01-27T15:54:19.288Z,1.67
2023-01-27T15:56:50.860Z,3.17
2023-01-27T15:59:19.530Z,3.00
2023-01-27T16:01:48.297Z,2.28
2023-01-27T16:04:17.223Z,1.85
2023-01-27T16:07:02.363Z,1.40
2023-01-27T16:09:51.107Z,2.75
2023-01-27T16:12:26.151Z,2.28
2023-01-27T16:15:02.420Z,2.90
2023-01-27T16:17:32.964Z,2.70
2023-01-27T16:20:03.285Z,2.47
2023-01-27T16:22:32.076Z,1.95
2023-01-27T16:25:02.220Z,2.55
2023-01-27T16:27:48.620Z,3.25
2023-01-27T16:30:20.995Z,2.60
2023-01-27T16:33:11.140Z,3.33
2023-01-27T16:35:44.881Z,4.10
2023-01-27T16:38:20.100Z,3.53
2023-01-27T16:40:50.289Z,3.58
2023-01-27T16:43:31.488Z,5.10
2023-01-27T16:46:01.435Z,3.00
2023-01-27T16:48:31.552Z,4.13
2023-01-27T16:51:17.577Z,3.60
2023-01-27T16:53:49.083Z,3.67
2023-01-27T16:56:22.385Z,3.55
2023-01-27T16:58:51.270Z,5.43
2023-01-27T17:01:20.911Z,4.22
2023-01-27T17:03:48.461Z,5.15
2023-01-27T17:06:16.527Z,3.83
2023-01-27T17:08:47.060Z,5.75
2023-01-27T17:11:19.501Z,3.88
2023-01-27T17:13:51.830Z,4.30
2023-01-27T17:16:29.612Z,3.97
2023-01-27T17:19:02.323Z,2.95
2023-01-27T17:21:38.371Z,4.38
2023-01-27T17:24:11.561Z,7.78
2023-01-27T17:26:38.786Z,4.32
2023-01-27T17:29:05.935Z,3.85
2023-01-27T17:31:35.140Z,4.15
2023-01-27T17:34:03.474Z,4.45
2023-01-27T17:36:30.665Z,5.03
2023-01-27T17:38:57.741Z,3.75
2023-01-27T17:41:51.307Z,4.85
2023-01-27T17:44:18.461Z,3.85
2023-01-27T17:46:45.612Z,3.90
2023-01-27T17:49:17.403Z,4.63
2023-01-27T17:51:46.426Z,4.75
2023-01-27T17:54:20.207Z,4.28
2023-01-27T17:56:48.557Z,4.15
2023-01-27T17:59:19.321Z,4.85
2023-01-27T18:01:47.306Z,4.28
2023-01-27T18:04:14.682Z,5.13
2023-01-27T18:06:42.977Z,3.47
2023-01-27T18:09:16.153Z,3.63
2023-01-27T18:11:53.262Z,4.60
2023-01-27T18:14:21.235Z,3.03
2023-01-27T18:17:05.158Z,4.03
2023-01-27T18:19:32.806Z,4.18
2023-01-27T18:22:07.435Z,5.00
2023-01-27T18:24:34.816Z,5.43
2023-01-27T18:27:01.949Z,4.65
2023-01-27T18:29:37.633Z,5.32
2023-01-27T18:32:11.053Z,4.70
2023-01-27T18:34:46.753Z,5.68
2023-01-27T18:37:23.224Z,7.65
2023-01-27T18:39:50.394Z,5.88
2023-01-27T18:42:18.305Z,5.95
2023-01-27T18:44:45.553Z,7.82
2023-01-27T18:47:22.242Z,5.63
2023-01-27T18:49:58.376Z,7.50
2023-01-27T18:52:25.797Z,7.95
2023-01-27T18:54:54.349Z,5.82
2023-01-27T18:57:21.464Z,7.85
2023-01-27T18:59:48.695Z,7.63
2023-01-27T19:02:16.082Z,8.25
2023-01-27T19:04:43.800Z,5.38
2023-01-27T19:07:15.870Z,5.68
2023-01-27T19:12:10.737Z,5.68
2023-01-27T19:14:38.102Z,7.70
2023-01-27T19:17:06.949Z,7.30
2023-01-27T19:19:34.029Z,8.15
2023-01-27T19:22:01.064Z,6.50
2023-01-27T19:24:28.244Z,6.97
2023-01-27T19:26:55.330Z,8.20
2023-01-27T19:29:22.616Z,7.03
2023-01-27T19:31:49.822Z,8.35
2023-01-27T19:34:17.015Z,7.95
2023-01-27T19:36:46.231Z,6.93
2023-01-27T19:39:17.823Z,6.78
2023-01-27T19:41:48.205Z,6.18
2023-01-27T19:44:15.911Z,6.47
2023-01-27T19:46:43.759Z,6.30
2023-01-27T19:49:17.598Z,8.30
2023-01-27T19:51:44.906Z,9.13
2023-01-27T19:54:12.284Z,6.20
2023-01-27T19:56:39.631Z,6.25
2023-01-27T19:59:06.912Z,7.18
2023-01-27T20:01:34.057Z,5.38
2023-01-27T20:04:01.210Z,5.75
2023-01-27T20:06:29.604Z,6.57
2023-01-27T20:08:59.438Z,7.38
2023-01-27T20:11:39.961Z,8.20
2023-01-27T20:14:10.107Z,7.95
2023-01-27T20:16:37.343Z,6.47
2023-01-27T20:19:04.565Z,7.50
2023-01-27T20:21:33.213Z,6.32
2023-01-27T20:24:01.471Z,6.90
2023-01-27T20:26:29.824Z,7.18
2023-01-27T20:28:56.929Z,7.28
2023-01-27T20:31:24.103Z,8.60
2023-01-27T20:33:51.602Z,10.23
2023-01-27T20:36:19.978Z,7.22
2023-01-27T20:38:47.487Z,9.07
2023-01-27T20:41:22.048Z,9.10
2023-01-27T20:43:49.782Z,7.85
2023-01-27T20:46:18.061Z,7.63
2023-01-27T20:48:45.379Z,7.65
2023-01-27T20:51:13.502Z,8.65
2023-01-27T20:53:47.771Z,9.27
2023-01-27T20:56:16.937Z,9.20
2023-01-27T20:58:44.386Z,7.22
2023-01-27T21:01:12.842Z,9.80
2023-01-27T21:03:40.624Z,7.40
2023-01-27T21:06:08.874Z,6.78
2023-01-27T21:08:35.949Z,6.95
2023-01-27T21:11:03.656Z,10.15
2023-01-27T21:13:31.435Z,9.32
2023-01-27T21:15:58.506Z,6.60
2023-01-27T21:18:25.970Z,8.27
2023-01-27T21:20:54.519Z,10.02
2023-01-27T21:23:22.841Z,8.85
2023-01-27T21:25:50.512Z,6.75
2023-01-27T21:28:17.763Z,6.90
2023-01-27T21:30:45.298Z,8.50
2023-01-27T21:33:12.660Z,7.32
2023-01-27T21:35:40.038Z,7.00
2023-01-27T21:38:07.274Z,8.57
2023-01-27T21:40:34.776Z,6.85
2023-01-27T21:43:20.623Z,8.70
2023-01-27T21:45:58.295Z,7.03
2023-01-27T21:48:25.402Z,8.73
2023-01-27T21:50:52.652Z,10.05
2023-01-27T21:53:19.810Z,11.27
2023-01-27T21:55:47.098Z,10.23
2023-01-27T21:58:14.169Z,10.10
2023-01-27T22:00:41.423Z,9.07
2023-01-27T22:03:08.564Z,8.00
2023-01-27T22:05:36.909Z,9.10
2023-01-27T22:08:06.296Z,9.20
2023-01-27T22:10:33.541Z,9.65
2023-01-27T22:13:01.494Z,9.40
2023-01-27T22:15:28.892Z,9.75
2023-01-27T22:17:56.425Z,8.65
2023-01-27T22:20:23.556Z,8.57
2023-01-27T22:22:51.885Z,9.00
2023-01-27T22:25:19.172Z,12.35
2023-01-27T22:27:46.746Z,10.05
2023-01-27T22:30:15.138Z,9.13
2023-01-27T22:32:42.354Z,13.38
2023-01-27T22:35:10.087Z,9.50
2023-01-27T22:37:37.847Z,9.07
2023-01-27T22:40:06.608Z,10.40
2023-01-27T22:42:35.065Z,9.75
2023-01-27T22:45:02.563Z,8.93
2023-01-27T22:47:29.714Z,10.98
2023-01-27T22:49:56.799Z,11.27
2023-01-27T22:52:23.862Z,11.40
2023-01-27T22:54:51.000Z,12.27
2023-01-27T22:57:18.060Z,8.32
2023-01-27T22:59:45.106Z,10.38
2023-01-27T23:02:12.262Z,10.80
2023-01-27T23:04:39.361Z,9.63
2023-01-27T23:07:06.494Z,10.18
2023-01-27T23:09:33.646Z,10.60
2023-01-27T23:12:00.778Z,10.98
2023-01-27T23:14:27.853Z,9.13
2023-01-27T23:16:55.448Z,8.45
2023-01-27T23:19:22.816Z,9.05
2023-01-27T23:21:50.031Z,12.27
2023-01-27T23:24:17.152Z,9.85
2023-01-27T23:26:44.290Z,9.88
2023-01-27T23:29:24.345Z,9.85
2023-01-27T23:31:52.600Z,10.02
2023-01-27T23:34:20.100Z,8.60
2023-01-27T23:36:48.181Z,10.20
2023-01-27T23:39:16.373Z,10.82
2023-01-27T23:41:43.472Z,11.02
2023-01-27T23:44:13.687Z,7.60
2023-01-27T23:46:41.301Z,8.20
2023-01-27T23:49:10.747Z,8.98
2023-01-27T23:51:38.064Z,10.63
2023-01-27T23:54:05.230Z,8.38
2023-01-27T23:56:32.337Z,7.28
2023-01-27T23:58:59.476Z,8.70
